sensor_id;sensor_type;location;lat;lon;timestamp;pressure;altitude;pressure_sealevel;temperature;humidity
37710;BME280;60223;34.854;-92.408;2022-08-01T00:00:58;100817.80;;;30.50;26.35
37710;BME280;60223;34.854;-92.408;2022-08-01T00:03:23;100811.17;;;30.78;26.21
37710;BME280;60223;34.854;-92.408;2022-08-01T00:05:46;100813.01;;;30.97;26.19
37710;BME280;60223;34.854;-92.408;2022-08-01T00:08:14;100812.06;;;31.51;25.99
37710;BME280;60223;34.854;-92.408;2022-08-01T00:10:39;100817.64;;;31.03;26.33
37710;BME280;60223;34.854;-92.408;2022-08-01T00:13:06;100818.90;;;31.15;26.13
37710;BME280;60223;34.854;-92.408;2022-08-01T00:15:30;100818.12;;;31.42;26.39
37710;BME280;60223;34.854;-92.408;2022-08-01T00:17:53;100820.56;;;31.41;26.14
37710;BME280;60223;34.854;-92.408;2022-08-01T00:20:21;100819.56;;;31.17;26.35
37710;BME280;60223;34.854;-92.408;2022-08-01T00:22:46;100821.23;;;30.76;26.65
37710;BME280;60223;34.854;-92.408;2022-08-01T00:25:13;100819.48;;;31.55;26.34
37710;BME280;60223;34.854;-92.408;2022-08-01T00:27:38;100821.65;;;31.49;26.36
37710;BME280;60223;34.854;-92.408;2022-08-01T00:30:05;100824.41;;;31.16;26.65
37710;BME280;60223;34.854;-92.408;2022-08-01T00:32:29;100826.27;;;31.77;26.64
37710;BME280;60223;34.854;-92.408;2022-08-01T00:34:55;100828.32;;;31.58;26.55
37710;BME280;60223;34.854;-92.408;2022-08-01T00:37:20;100830.88;;;31.61;26.40
37710;BME280;60223;34.854;-92.408;2022-08-01T00:39:46;100829.88;;;31.66;26.47
37710;BME280;60223;34.854;-92.408;2022-08-01T00:42:13;100826.35;;;31.39;26.78
37710;BME280;60223;34.854;-92.408;2022-08-01T00:44:37;100816.27;;;31.87;26.51
37710;BME280;60223;34.854;-92.408;2022-08-01T00:47:01;100811.17;;;31.87;26.75
37710;BME280;60223;34.854;-92.408;2022-08-01T00:49:28;100808.62;;;31.86;27.05
37710;BME280;60223;34.854;-92.408;2022-08-01T00:51:53;100808.77;;;31.99;27.08
37710;BME280;60223;34.854;-92.408;2022-08-01T00:54:20;100808.05;;;31.80;27.55
37710;BME280;60223;34.854;-92.408;2022-08-01T00:56:44;100808.99;;;31.96;27.86
37710;BME280;60223;34.854;-92.408;2022-08-01T00:59:11;100809.63;;;31.90;27.70
37710;BME280;60223;34.854;-92.408;2022-08-01T01:01:36;100814.94;;;31.72;27.98
37710;BME280;60223;34.854;-92.408;2022-08-01T01:04:00;100811.23;;;31.99;27.74
37710;BME280;60223;34.854;-92.408;2022-08-01T01:06:33;100806.62;;;32.28;27.74
37710;BME280;60223;34.854;-92.408;2022-08-01T01:08:58;100806.24;;;31.71;28.03
37710;BME280;60223;34.854;-92.408;2022-08-01T01:11:21;100807.44;;;29.41;31.11
37710;BME280;60223;34.854;-92.408;2022-08-01T01:13:49;100813.99;;;26.50;34.27
37710;BME280;60223;34.854;-92.408;2022-08-01T01:16:11;100811.71;;;25.09;36.00
37710;BME280;60223;34.854;-92.408;2022-08-01T01:18:37;100811.38;;;25.66;34.61
37710;BME280;60223;34.854;-92.408;2022-08-01T01:21:06;100811.61;;;26.81;33.38
37710;BME280;60223;34.854;-92.408;2022-08-01T01:23:37;100813.50;;;27.95;32.12
37710;BME280;60223;34.854;-92.408;2022-08-01T01:26:08;100818.53;;;28.03;31.55
37710;BME280;60223;34.854;-92.408;2022-08-01T01:28:22;100825.43;;;28.13;31.14
37710;BME280;60223;34.854;-92.408;2022-08-01T01:30:45;100829.42;;;26.39;32.57
37710;BME280;60223;34.854;-92.408;2022-08-01T01:33:10;100825.44;;;28.18;29.83
37710;BME280;60223;34.854;-92.408;2022-08-01T01:35:35;100819.93;;;27.97;30.18
37710;BME280;60223;34.854;-92.408;2022-08-01T01:38:04;100817.09;;;27.56;30.05
37710;BME280;60223;34.854;-92.408;2022-08-01T01:40:25;100824.89;;;26.74;31.11
37710;BME280;60223;34.854;-92.408;2022-08-01T01:42:50;100823.70;;;26.94;30.48
37710;BME280;60223;34.854;-92.408;2022-08-01T01:45:14;100826.29;;;27.89;29.49
37710;BME280;60223;34.854;-92.408;2022-08-01T01:47:42;100823.25;;;27.30;29.59
37710;BME280;60223;34.854;-92.408;2022-08-01T01:50:07;100817.34;;;23.91;32.72
37710;BME280;60223;34.854;-92.408;2022-08-01T01:52:31;100820.01;;;26.02;30.59
37710;BME280;60223;34.854;-92.408;2022-08-01T01:54:59;100818.44;;;25.78;30.40
37710;BME280;60223;34.854;-92.408;2022-08-01T01:57:22;100816.72;;;28.09;28.82
37710;BME280;60223;34.854;-92.408;2022-08-01T01:59:48;100818.35;;;29.42;27.72
37710;BME280;60223;34.854;-92.408;2022-08-01T02:02:15;100819.51;;;29.59;27.28
37710;BME280;60223;34.854;-92.408;2022-08-01T02:04:42;100814.25;;;29.95;27.23
37710;BME280;60223;34.854;-92.408;2022-08-01T02:07:05;100811.54;;;30.28;26.77
37710;BME280;60223;34.854;-92.408;2022-08-01T02:09:31;100806.83;;;30.42;26.87
37710;BME280;60223;34.854;-92.408;2022-08-01T02:11:57;100807.69;;;30.71;26.80
37710;BME280;60223;34.854;-92.408;2022-08-01T02:14:21;100810.22;;;30.69;26.61
37710;BME280;60223;34.854;-92.408;2022-08-01T02:16:49;100813.96;;;30.96;26.45
37710;BME280;60223;34.854;-92.408;2022-08-01T02:19:11;100813.81;;;30.99;26.44
37710;BME280;60223;34.854;-92.408;2022-08-01T02:21:43;100815.73;;;30.89;26.49
37710;BME280;60223;34.854;-92.408;2022-08-01T02:24:07;100813.72;;;30.89;26.74
37710;BME280;60223;34.854;-92.408;2022-08-01T02:26:29;100811.97;;;30.98;26.71
37710;BME280;60223;34.854;-92.408;2022-08-01T02:28:55;100808.52;;;31.02;26.64
37710;BME280;60223;34.854;-92.408;2022-08-01T02:31:21;100805.75;;;30.80;26.84
37710;BME280;60223;34.854;-92.408;2022-08-01T02:33:49;100806.11;;;31.58;26.49
37710;BME280;60223;34.854;-92.408;2022-08-01T02:36:10;100807.28;;;31.33;26.84
37710;BME280;60223;34.854;-92.408;2022-08-01T02:38:37;100806.76;;;31.24;26.80
37710;BME280;60223;34.854;-92.408;2022-08-01T02:41:09;100801.43;;;31.55;26.81
37710;BME280;60223;34.854;-92.408;2022-08-01T02:43:26;100794.34;;;31.87;26.59
37710;BME280;60223;34.854;-92.408;2022-08-01T02:45:57;100795.77;;;31.31;26.77
37710;BME280;60223;34.854;-92.408;2022-08-01T02:48:21;100794.48;;;31.28;26.88
37710;BME280;60223;34.854;-92.408;2022-08-01T02:50:47;100795.02;;;31.34;26.96
37710;BME280;60223;34.854;-92.408;2022-08-01T02:53:11;100792.02;;;31.35;27.21
37710;BME280;60223;34.854;-92.408;2022-08-01T02:55:34;100786.23;;;31.81;27.18
37710;BME280;60223;34.854;-92.408;2022-08-01T02:58:01;100779.70;;;31.96;27.12
37710;BME280;60223;34.854;-92.408;2022-08-01T03:00:27;100782.43;;;31.65;27.32
37710;BME280;60223;34.854;-92.408;2022-08-01T03:02:53;100779.72;;;31.61;27.25
37710;BME280;60223;34.854;-92.408;2022-08-01T03:05:17;100778.33;;;32.34;27.05
37710;BME280;60223;34.854;-92.408;2022-08-01T03:07:44;100774.85;;;31.91;27.10
37710;BME280;60223;34.854;-92.408;2022-08-01T03:10:08;100774.89;;;31.83;27.16
37710;BME280;60223;34.854;-92.408;2022-08-01T03:12:36;100773.03;;;31.78;27.30
37710;BME280;60223;34.854;-92.408;2022-08-01T03:15:02;100769.41;;;32.31;27.31
37710;BME280;60223;34.854;-92.408;2022-08-01T03:17:27;100769.07;;;31.78;27.34
37710;BME280;60223;34.854;-92.408;2022-08-01T03:19:49;100765.83;;;31.76;27.46
37710;BME280;60223;34.854;-92.408;2022-08-01T03:22:17;100766.68;;;31.82;27.43
37710;BME280;60223;34.854;-92.408;2022-08-01T03:24:42;100764.62;;;31.76;27.55
37710;BME280;60223;34.854;-92.408;2022-08-01T03:27:09;100765.79;;;31.87;27.49
37710;BME280;60223;34.854;-92.408;2022-08-01T03:29:35;100766.02;;;31.66;27.54
37710;BME280;60223;34.854;-92.408;2022-08-01T03:31:58;100771.91;;;32.13;27.47
37710;BME280;60223;34.854;-92.408;2022-08-01T03:34:24;100774.50;;;31.86;27.80
37710;BME280;60223;34.854;-92.408;2022-08-01T03:36:53;100773.96;;;32.46;27.71
37710;BME280;60223;34.854;-92.408;2022-08-01T03:39:17;100768.65;;;31.91;27.83
37710;BME280;60223;34.854;-92.408;2022-08-01T03:41:45;100772.54;;;31.80;27.73
37710;BME280;60223;34.854;-92.408;2022-08-01T03:44:10;100772.52;;;31.89;27.87
37710;BME280;60223;34.854;-92.408;2022-08-01T03:46:36;100772.38;;;32.23;27.56
37710;BME280;60223;34.854;-92.408;2022-08-01T03:49:00;100779.67;;;32.09;27.85
37710;BME280;60223;34.854;-92.408;2022-08-01T03:51:25;100776.73;;;31.74;27.92
37710;BME280;60223;34.854;-92.408;2022-08-01T03:53:48;100775.63;;;32.65;27.85
37710;BME280;60223;34.854;-92.408;2022-08-01T03:56:17;100774.31;;;32.04;27.98
37710;BME280;60223;34.854;-92.408;2022-08-01T03:58:40;100770.31;;;31.80;28.11
37710;BME280;60223;34.854;-92.408;2022-08-01T04:01:06;100766.95;;;32.04;28.21
37710;BME280;60223;34.854;-92.408;2022-08-01T04:03:32;100765.45;;;32.01;28.27
37710;BME280;60223;34.854;-92.408;2022-08-01T04:05:57;100766.42;;;32.02;28.27
37710;BME280;60223;34.854;-92.408;2022-08-01T04:08:21;100763.91;;;31.98;28.35
37710;BME280;60223;34.854;-92.408;2022-08-01T04:10:48;100762.40;;;32.14;28.47
37710;BME280;60223;34.854;-92.408;2022-08-01T04:13:13;100761.10;;;31.94;28.53
37710;BME280;60223;34.854;-92.408;2022-08-01T04:15:40;100762.41;;;31.79;28.33
37710;BME280;60223;34.854;-92.408;2022-08-01T04:18:06;100761.29;;;31.99;28.51
37710;BME280;60223;34.854;-92.408;2022-08-01T04:20:28;100757.47;;;30.79;29.94
37710;BME280;60223;34.854;-92.408;2022-08-01T04:22:56;100752.56;;;26.38;33.82
37710;BME280;60223;34.854;-92.408;2022-08-01T04:25:27;100754.15;;;24.03;36.70
37710;BME280;60223;34.854;-92.408;2022-08-01T04:27:48;100756.84;;;24.09;36.35
37710;BME280;60223;34.854;-92.408;2022-08-01T04:30:14;100759.14;;;26.57;32.90
37710;BME280;60223;34.854;-92.408;2022-08-01T04:32:41;100759.18;;;26.92;32.66
37710;BME280;60223;34.854;-92.408;2022-08-01T04:35:07;100758.84;;;26.29;32.78
37710;BME280;60223;34.854;-92.408;2022-08-01T04:37:29;100753.27;;;27.52;30.98
37710;BME280;60223;34.854;-92.408;2022-08-01T04:39:55;100755.80;;;27.07;31.27
37710;BME280;60223;34.854;-92.408;2022-08-01T04:42:21;100750.45;;;27.23;31.07
37710;BME280;60223;34.854;-92.408;2022-08-01T04:44:46;100753.00;;;27.64;30.08
37710;BME280;60223;34.854;-92.408;2022-08-01T04:47:12;100753.22;;;27.58;29.76
37710;BME280;60223;34.854;-92.408;2022-08-01T04:49:36;100756.93;;;27.29;29.90
37710;BME280;60223;34.854;-92.408;2022-08-01T04:52:04;100752.17;;;27.52;29.44
37710;BME280;60223;34.854;-92.408;2022-08-01T04:54:29;100756.20;;;26.79;30.04
37710;BME280;60223;34.854;-92.408;2022-08-01T04:56:52;100754.24;;;26.88;29.61
37710;BME280;60223;34.854;-92.408;2022-08-01T04:59:20;100759.58;;;26.28;30.01
37710;BME280;60223;34.854;-92.408;2022-08-01T05:01:48;100759.57;;;24.08;31.87
37710;BME280;60223;34.854;-92.408;2022-08-01T05:04:11;100762.33;;;27.49;28.73
37710;BME280;60223;34.854;-92.408;2022-08-01T05:06:36;100766.38;;;28.74;27.91
37710;BME280;60223;34.854;-92.408;2022-08-01T05:09:02;100769.55;;;29.33;27.27
37710;BME280;60223;34.854;-92.408;2022-08-01T05:11:28;100763.98;;;29.56;27.26
37710;BME280;60223;34.854;-92.408;2022-08-01T05:13:51;100762.72;;;29.89;26.79
37710;BME280;60223;34.854;-92.408;2022-08-01T05:16:19;100756.44;;;30.11;26.50
37710;BME280;60223;34.854;-92.408;2022-08-01T05:18:44;100760.53;;;30.21;26.47
37710;BME280;60223;34.854;-92.408;2022-08-01T05:21:10;100763.07;;;30.06;26.54
37710;BME280;60223;34.854;-92.408;2022-08-01T05:23:36;100768.45;;;30.26;26.48
37710;BME280;60223;34.854;-92.408;2022-08-01T05:26:02;100770.13;;;30.59;26.29
37710;BME280;60223;34.854;-92.408;2022-08-01T05:28:27;100769.46;;;30.91;26.31
37710;BME280;60223;34.854;-92.408;2022-08-01T05:30:53;100770.65;;;30.61;26.47
37710;BME280;60223;34.854;-92.408;2022-08-01T05:33:18;100774.05;;;30.60;26.37
37710;BME280;60223;34.854;-92.408;2022-08-01T05:35:44;100766.73;;;30.43;26.61
37710;BME280;60223;34.854;-92.408;2022-08-01T05:38:10;100764.60;;;30.87;26.35
37710;BME280;60223;34.854;-92.408;2022-08-01T05:40:33;100760.62;;;30.59;26.65
37710;BME280;60223;34.854;-92.408;2022-08-01T05:43:01;100759.11;;;30.81;26.64
37710;BME280;60223;34.854;-92.408;2022-08-01T05:45:26;100752.72;;;30.72;26.75
37710;BME280;60223;34.854;-92.408;2022-08-01T05:47:52;100749.35;;;30.85;26.68
37710;BME280;60223;34.854;-92.408;2022-08-01T05:50:17;100750.63;;;30.84;26.78
37710;BME280;60223;34.854;-92.408;2022-08-01T05:52:43;100751.12;;;31.38;26.65
37710;BME280;60223;34.854;-92.408;2022-08-01T05:55:08;100747.78;;;31.01;26.82
37710;BME280;60223;34.854;-92.408;2022-08-01T05:57:34;100743.16;;;30.70;26.94
37710;BME280;60223;34.854;-92.408;2022-08-01T06:00:00;100742.29;;;31.07;26.92
37710;BME280;60223;34.854;-92.408;2022-08-01T06:02:26;100740.32;;;30.86;26.99
37710;BME280;60223;34.854;-92.408;2022-08-01T06:04:52;100742.16;;;31.20;26.99
37710;BME280;60223;34.854;-92.408;2022-08-01T06:07:17;100739.40;;;31.20;27.02
37710;BME280;60223;34.854;-92.408;2022-08-01T06:09:40;100734.95;;;31.12;27.12
37710;BME280;60223;34.854;-92.408;2022-08-01T06:12:09;100738.01;;;31.23;27.11
37710;BME280;60223;34.854;-92.408;2022-08-01T06:14:34;100734.37;;;31.04;27.32
37710;BME280;60223;34.854;-92.408;2022-08-01T06:17:00;100734.54;;;30.69;27.24
37710;BME280;60223;34.854;-92.408;2022-08-01T06:19:25;100734.30;;;31.10;27.12
37710;BME280;60223;34.854;-92.408;2022-08-01T06:21:48;100735.00;;;31.24;27.30
37710;BME280;60223;34.854;-92.408;2022-08-01T06:24:16;100734.66;;;31.12;27.21
37710;BME280;60223;34.854;-92.408;2022-08-01T06:26:42;100733.12;;;31.36;27.32
37710;BME280;60223;34.854;-92.408;2022-08-01T06:29:08;100733.25;;;31.13;27.40
37710;BME280;60223;34.854;-92.408;2022-08-01T06:31:33;100732.18;;;31.42;27.41
37710;BME280;60223;34.854;-92.408;2022-08-01T06:33:59;100725.03;;;31.30;27.31
37710;BME280;60223;34.854;-92.408;2022-08-01T06:36:25;100725.30;;;30.93;27.55
37710;BME280;60223;34.854;-92.408;2022-08-01T06:38:48;100722.06;;;31.50;27.50
37710;BME280;60223;34.854;-92.408;2022-08-01T06:41:16;100722.47;;;30.98;27.55
37710;BME280;60223;34.854;-92.408;2022-08-01T06:43:41;100720.50;;;31.19;27.39
37710;BME280;60223;34.854;-92.408;2022-08-01T06:46:07;100717.34;;;31.63;27.46
37710;BME280;60223;34.854;-92.408;2022-08-01T06:48:33;100715.20;;;31.40;27.47
37710;BME280;60223;34.854;-92.408;2022-08-01T06:50:58;100716.53;;;31.14;27.53
37710;BME280;60223;34.854;-92.408;2022-08-01T06:53:22;100717.15;;;31.72;27.50
37710;BME280;60223;34.854;-92.408;2022-08-01T06:55:50;100721.06;;;31.24;27.51
37710;BME280;60223;34.854;-92.408;2022-08-01T06:58:15;100727.37;;;31.40;27.63
37710;BME280;60223;34.854;-92.408;2022-08-01T07:00:41;100723.71;;;31.28;27.55
37710;BME280;60223;34.854;-92.408;2022-08-01T07:03:07;100722.55;;;31.28;27.56
37710;BME280;60223;34.854;-92.408;2022-08-01T07:05:29;100720.17;;;31.56;27.56
37710;BME280;60223;34.854;-92.408;2022-08-01T07:07:58;100716.07;;;31.52;27.68
37710;BME280;60223;34.854;-92.408;2022-08-01T07:10:23;100713.78;;;31.70;27.76
37710;BME280;60223;34.854;-92.408;2022-08-01T07:12:48;100708.19;;;31.56;27.68
37710;BME280;60223;34.854;-92.408;2022-08-01T07:15:15;100709.18;;;31.82;27.67
37710;BME280;60223;34.854;-92.408;2022-08-01T07:17:41;100709.07;;;31.67;27.66
37710;BME280;60223;34.854;-92.408;2022-08-01T07:20:07;100708.91;;;31.38;27.75
37710;BME280;60223;34.854;-92.408;2022-08-01T07:22:29;100708.43;;;31.27;27.91
37710;BME280;60223;34.854;-92.408;2022-08-01T07:24:56;100705.96;;;31.35;27.91
37710;BME280;60223;34.854;-92.408;2022-08-01T07:27:22;100705.95;;;31.85;27.95
37710;BME280;60223;34.854;-92.408;2022-08-01T07:29:48;100707.60;;;31.50;27.79
37710;BME280;60223;34.854;-92.408;2022-08-01T07:32:28;100714.02;;;31.72;27.85
37710;BME280;60223;34.854;-92.408;2022-08-01T07:34:39;100717.35;;;31.82;27.86
37710;BME280;60223;34.854;-92.408;2022-08-01T07:37:05;100716.07;;;32.07;27.90
37710;BME280;60223;34.854;-92.408;2022-08-01T07:39:28;100718.81;;;31.48;28.04
37710;BME280;60223;34.854;-92.408;2022-08-01T07:41:56;100716.86;;;31.64;27.94
37710;BME280;60223;34.854;-92.408;2022-08-01T07:44:22;100716.33;;;31.57;28.04
37710;BME280;60223;34.854;-92.408;2022-08-01T07:46:46;100716.98;;;31.54;28.11
37710;BME280;60223;34.854;-92.408;2022-08-01T07:49:12;100716.05;;;31.54;28.13
37710;BME280;60223;34.854;-92.408;2022-08-01T07:51:35;100715.33;;;31.70;28.01
37710;BME280;60223;34.854;-92.408;2022-08-01T07:54:04;100716.65;;;31.63;28.15
37710;BME280;60223;34.854;-92.408;2022-08-01T07:56:29;100713.75;;;31.72;28.09
37710;BME280;60223;34.854;-92.408;2022-08-01T07:58:52;100708.62;;;31.68;28.08
37710;BME280;60223;34.854;-92.408;2022-08-01T08:01:18;100708.87;;;31.68;28.18
37710;BME280;60223;34.854;-92.408;2022-08-01T08:03:46;100709.35;;;31.75;28.16
37710;BME280;60223;34.854;-92.408;2022-08-01T08:06:11;100710.37;;;32.20;28.22
37710;BME280;60223;34.854;-92.408;2022-08-01T08:08:37;100707.83;;;31.52;28.18
37710;BME280;60223;34.854;-92.408;2022-08-01T08:11:03;100704.27;;;31.81;28.12
37710;BME280;60223;34.854;-92.408;2022-08-01T08:13:26;100705.33;;;31.97;28.23
37710;BME280;60223;34.854;-92.408;2022-08-01T08:15:54;100702.71;;;31.47;28.31
37710;BME280;60223;34.854;-92.408;2022-08-01T08:18:19;100706.63;;;31.64;28.35
37710;BME280;60223;34.854;-92.408;2022-08-01T08:20:45;100700.38;;;31.72;28.34
37710;BME280;60223;34.854;-92.408;2022-08-01T08:23:11;100699.60;;;31.70;28.37
37710;BME280;60223;34.854;-92.408;2022-08-01T08:25:33;100699.46;;;31.68;28.41
37710;BME280;60223;34.854;-92.408;2022-08-01T08:28:02;100702.92;;;31.64;28.47
37710;BME280;60223;34.854;-92.408;2022-08-01T08:30:26;100701.41;;;31.94;28.22
37710;BME280;60223;34.854;-92.408;2022-08-01T08:32:51;100700.36;;;31.79;28.36
37710;BME280;60223;34.854;-92.408;2022-08-01T08:35:19;100707.65;;;31.70;28.51
37710;BME280;60223;34.854;-92.408;2022-08-01T08:37:44;100706.04;;;31.58;28.38
37710;BME280;60223;34.854;-92.408;2022-08-01T08:40:11;100710.38;;;31.79;28.45
37710;BME280;60223;34.854;-92.408;2022-08-01T08:42:35;100708.51;;;31.70;28.50
37710;BME280;60223;34.854;-92.408;2022-08-01T08:45:01;100707.80;;;31.79;28.46
37710;BME280;60223;34.854;-92.408;2022-08-01T08:47:28;100711.21;;;31.74;28.55
37710;BME280;60223;34.854;-92.408;2022-08-01T08:49:54;100716.18;;;31.77;28.54
37710;BME280;60223;34.854;-92.408;2022-08-01T08:52:19;100715.25;;;31.88;28.48
37710;BME280;60223;34.854;-92.408;2022-08-01T08:54:46;100714.96;;;31.87;28.49
37710;BME280;60223;34.854;-92.408;2022-08-01T08:57:09;100715.05;;;31.90;28.49
37710;BME280;60223;34.854;-92.408;2022-08-01T08:59:35;100721.52;;;31.87;28.55
37710;BME280;60223;34.854;-92.408;2022-08-01T09:01:59;100721.37;;;30.37;29.90
37710;BME280;60223;34.854;-92.408;2022-08-01T09:04:26;100719.85;;;26.09;34.02
37710;BME280;60223;34.854;-92.408;2022-08-01T09:06:52;100727.94;;;25.18;35.34
37710;BME280;60223;34.854;-92.408;2022-08-01T09:09:14;100721.92;;;22.85;37.92
37710;BME280;60223;34.854;-92.408;2022-08-01T09:11:43;100725.54;;;24.72;35.56
37710;BME280;60223;34.854;-92.408;2022-08-01T09:14:10;100729.93;;;25.98;33.76
37710;BME280;60223;34.854;-92.408;2022-08-01T09:16:34;100725.64;;;26.06;32.82
37710;BME280;60223;34.854;-92.408;2022-08-01T09:19:09;100719.72;;;27.53;31.42
37710;BME280;60223;34.854;-92.408;2022-08-01T09:21:25;100724.91;;;24.97;33.48
37710;BME280;60223;34.854;-92.408;2022-08-01T09:23:51;100723.90;;;27.54;30.17
37710;BME280;60223;34.854;-92.408;2022-08-01T09:26:18;100725.17;;;26.21;31.08
37710;BME280;60223;34.854;-92.408;2022-08-01T09:28:43;100727.79;;;25.75;31.28
37710;BME280;60223;34.854;-92.408;2022-08-01T09:31:11;100729.52;;;26.46;30.38
37710;BME280;60223;34.854;-92.408;2022-08-01T09:33:47;100730.66;;;26.19;30.42
37710;BME280;60223;34.854;-92.408;2022-08-01T09:36:00;100738.23;;;26.97;29.34
37710;BME280;60223;34.854;-92.408;2022-08-01T09:38:25;100734.45;;;24.07;32.11
37710;BME280;60223;34.854;-92.408;2022-08-01T09:40:54;100738.19;;;26.73;29.36
37710;BME280;60223;34.854;-92.408;2022-08-01T09:43:17;100743.78;;;26.76;29.45
37710;BME280;60223;34.854;-92.408;2022-08-01T09:45:42;100738.93;;;28.53;27.84
37710;BME280;60223;34.854;-92.408;2022-08-01T09:48:10;100733.55;;;28.02;28.36
37710;BME280;60223;34.854;-92.408;2022-08-01T09:50:39;100729.48;;;28.99;27.30
37710;BME280;60223;34.854;-92.408;2022-08-01T09:52:59;100734.26;;;29.67;27.17
37710;BME280;60223;34.854;-92.408;2022-08-01T09:55:25;100734.94;;;29.40;27.07
37710;BME280;60223;34.854;-92.408;2022-08-01T09:57:55;100733.77;;;29.81;26.80
37710;BME280;60223;34.854;-92.408;2022-08-01T10:00:19;100734.92;;;30.19;26.58
37710;BME280;60223;34.854;-92.408;2022-08-01T10:02:42;100736.59;;;30.50;26.33
37710;BME280;60223;34.854;-92.408;2022-08-01T10:05:09;100740.60;;;30.75;26.24
37710;BME280;60223;34.854;-92.408;2022-08-01T10:07:31;100744.01;;;31.08;26.03
37710;BME280;60223;34.854;-92.408;2022-08-01T10:12:25;100742.25;;;30.73;26.27
37710;BME280;60223;34.854;-92.408;2022-08-01T10:14:50;100742.98;;;31.03;26.36
37710;BME280;60223;34.854;-92.408;2022-08-01T10:17:17;100740.47;;;30.84;26.44
37710;BME280;60223;34.854;-92.408;2022-08-01T10:19:41;100737.38;;;30.75;26.39
37710;BME280;60223;34.854;-92.408;2022-08-01T10:22:09;100736.85;;;31.05;26.38
37710;BME280;60223;34.854;-92.408;2022-08-01T10:24:31;100736.91;;;31.18;26.38
37710;BME280;60223;34.854;-92.408;2022-08-01T10:27:02;100735.40;;;30.71;26.65
37710;BME280;60223;34.854;-92.408;2022-08-01T10:29:24;100737.09;;;30.78;26.67
37710;BME280;60223;34.854;-92.408;2022-08-01T10:31:48;100738.07;;;31.04;26.71
37710;BME280;60223;34.854;-92.408;2022-08-01T10:34:15;100738.49;;;30.88;26.72
37710;BME280;60223;34.854;-92.408;2022-08-01T10:36:41;100738.08;;;31.05;26.82
37710;BME280;60223;34.854;-92.408;2022-08-01T10:39:06;100740.32;;;30.86;26.81
37710;BME280;60223;34.854;-92.408;2022-08-01T10:41:31;100739.91;;;30.87;26.85
37710;BME280;60223;34.854;-92.408;2022-08-01T10:43:57;100742.26;;;30.84;26.95
37710;BME280;60223;34.854;-92.408;2022-08-01T10:46:23;100743.96;;;31.04;26.81
37710;BME280;60223;34.854;-92.408;2022-08-01T10:48:54;100747.97;;;30.83;26.80
37710;BME280;60223;34.854;-92.408;2022-08-01T10:51:13;100754.65;;;31.16;26.80
37710;BME280;60223;34.854;-92.408;2022-08-01T10:53:41;100755.60;;;31.02;26.75
37710;BME280;60223;34.854;-92.408;2022-08-01T10:56:08;100756.39;;;30.85;26.95
37710;BME280;60223;34.854;-92.408;2022-08-01T10:58:33;100758.55;;;31.24;26.81
37710;BME280;60223;34.854;-92.408;2022-08-01T11:05:47;100769.30;;;31.27;26.90
37710;BME280;60223;34.854;-92.408;2022-08-01T11:10:41;100768.66;;;31.05;27.00
37710;BME280;60223;34.854;-92.408;2022-08-01T11:13:04;100773.33;;;31.24;27.06
37710;BME280;60223;34.854;-92.408;2022-08-01T11:15:29;100772.01;;;31.18;26.91
37710;BME280;60223;34.854;-92.408;2022-08-01T11:17:55;100772.80;;;31.12;27.07
37710;BME280;60223;34.854;-92.408;2022-08-01T11:20:22;100772.32;;;31.09;27.11
37710;BME280;60223;34.854;-92.408;2022-08-01T11:25:12;100777.91;;;30.84;27.42
37710;BME280;60223;34.854;-92.408;2022-08-01T11:27:38;100777.69;;;30.71;27.40
37710;BME280;60223;34.854;-92.408;2022-08-01T11:30:22;100777.94;;;31.22;27.34
37710;BME280;60223;34.854;-92.408;2022-08-01T11:32:28;100781.51;;;31.36;27.32
37710;BME280;60223;34.854;-92.408;2022-08-01T11:34:58;100782.90;;;30.81;27.45
37710;BME280;60223;34.854;-92.408;2022-08-01T11:37:28;100784.72;;;31.21;27.54
37710;BME280;60223;34.854;-92.408;2022-08-01T11:42:21;100789.19;;;31.37;27.49
37710;BME280;60223;34.854;-92.408;2022-08-01T11:47:04;100793.04;;;31.33;27.64
37710;BME280;60223;34.854;-92.408;2022-08-01T11:49:31;100793.70;;;31.06;27.47
37710;BME280;60223;34.854;-92.408;2022-08-01T11:52:01;100798.87;;;31.54;27.43
37710;BME280;60223;34.854;-92.408;2022-08-01T11:54:23;100799.29;;;31.63;27.44
37710;BME280;60223;34.854;-92.408;2022-08-01T11:56:44;100801.91;;;31.62;27.54
37710;BME280;60223;34.854;-92.408;2022-08-01T11:59:11;100803.08;;;31.77;27.51
37710;BME280;60223;34.854;-92.408;2022-08-01T12:01:36;100805.88;;;31.39;27.57
37710;BME280;60223;34.854;-92.408;2022-08-01T12:03:59;100809.83;;;31.25;28.08
37710;BME280;60223;34.854;-92.408;2022-08-01T12:06:31;100812.16;;;31.47;28.12
37710;BME280;60223;34.854;-92.408;2022-08-01T12:08:52;100811.36;;;31.61;27.96
37710;BME280;60223;34.854;-92.408;2022-08-01T12:11:18;100808.98;;;31.43;27.67
37710;BME280;60223;34.854;-92.408;2022-08-01T12:13:44;100813.14;;;31.34;27.96
37710;BME280;60223;34.854;-92.408;2022-08-01T12:16:10;100816.24;;;31.86;27.96
37710;BME280;60223;34.854;-92.408;2022-08-01T12:18:40;100821.49;;;31.48;27.95
37710;BME280;60223;34.854;-92.408;2022-08-01T12:21:05;100819.95;;;31.36;28.13
37710;BME280;60223;34.854;-92.408;2022-08-01T12:23:25;100824.81;;;31.79;27.99
37710;BME280;60223;34.854;-92.408;2022-08-01T12:25:54;100823.55;;;31.76;27.77
37710;BME280;60223;34.854;-92.408;2022-08-01T12:28:17;100826.49;;;31.95;27.92
37710;BME280;60223;34.854;-92.408;2022-08-01T12:30:43;100833.21;;;32.10;28.33
37710;BME280;60223;34.854;-92.408;2022-08-01T12:33:11;100835.51;;;31.76;28.57
37710;BME280;60223;34.854;-92.408;2022-08-01T12:35:34;100838.80;;;32.71;29.53
37710;BME280;60223;34.854;-92.408;2022-08-01T12:38:02;100841.36;;;32.70;29.67